createdAt,value
2024-05-09T04:04:51.989Z,56.80
2024-05-09T04:15:24.003Z,54.90
2024-05-09T04:25:57.685Z,54.60
2024-05-09T04:36:28.798Z,55.40
2024-05-09T04:47:02.312Z,52.10
2024-05-09T04:57:34.194Z,52.10
2024-05-09T05:08:08.885Z,53.00
2024-05-09T05:18:40.439Z,50.60
2024-05-09T05:29:09.874Z,49.60
2024-05-09T05:39:41.034Z,50.00
2024-05-09T05:50:23.606Z,49.90
2024-05-09T06:00:56.639Z,51.20
2024-05-09T06:11:31.218Z,48.80
2024-05-09T06:50:24.320Z,46.40
2024-05-09T07:00:52.757Z,45.70
2024-05-09T07:11:19.839Z,45.20
2024-05-09T07:21:44.693Z,45.10
2024-05-09T07:32:12.546Z,43.90
2024-05-09T07:42:37.365Z,42.50
2024-05-09T07:53:36.250Z,42.90
2024-05-09T08:03:48.892Z,42.80
2024-05-09T08:14:15.886Z,39.90
2024-05-09T08:24:40.643Z,43.50
2024-05-09T08:35:08.783Z,40.90
2024-05-09T08:45:39.577Z,41.30
2024-05-09T08:56:08.433Z,41.40
2024-05-09T09:06:33.095Z,40.50
2024-05-09T09:17:00.827Z,42.10
2024-05-09T09:27:25.591Z,41.50
2024-05-09T09:37:54.387Z,40.90
2024-05-09T09:48:20.687Z,39.00
2024-05-09T09:58:49.659Z,40.10
2024-05-09T10:09:16.591Z,43.10
2024-05-09T10:19:43.774Z,44.30
2024-05-09T10:30:14.670Z,41.50
2024-05-09T10:40:51.279Z,42.20
2024-05-09T10:51:16.652Z,39.30
2024-05-09T11:01:44.134Z,39.70
2024-05-09T11:12:09.987Z,39.70
2024-05-09T11:22:37.516Z,38.00
2024-05-09T11:33:02.300Z,39.40
2024-05-09T11:43:29.788Z,40.50
2024-05-09T11:53:54.631Z,39.30
2024-05-09T12:04:22.440Z,37.40
2024-05-09T12:14:48.179Z,37.60
2024-05-09T12:25:16.169Z,40.50
2024-05-09T12:35:44.279Z,37.50
2024-05-09T12:46:14.728Z,37.90
2024-05-09T12:56:39.892Z,38.50
2024-05-09T13:07:08.233Z,36.90
2024-05-09T13:17:33.911Z,33.60
2024-05-09T13:28:01.949Z,33.00
2024-05-09T13:38:26.915Z,33.00
2024-05-09T13:48:55.044Z,34.30
2024-05-09T13:59:20.206Z,34.50
2024-05-09T14:09:48.974Z,33.10
2024-05-09T14:20:22.865Z,30.80
2024-05-09T14:30:56.710Z,32.50
2024-05-09T14:41:22.192Z,34.60
2024-05-09T14:51:51.944Z,29.30
2024-05-09T15:02:17.308Z,34.50
2024-05-09T15:12:45.313Z,34.70
2024-05-09T15:23:10.889Z,36.70
2024-05-09T15:33:38.863Z,37.50
2024-05-09T15:44:03.735Z,36.80
2024-05-09T15:54:37.215Z,37.20
2024-05-09T16:05:09.702Z,36.20
2024-05-09T16:15:37.616Z,37.50
2024-05-09T16:26:02.894Z,36.30
2024-05-09T16:36:30.916Z,38.70
2024-05-09T16:46:56.517Z,37.50
2024-05-09T16:57:24.604Z,37.10
2024-05-09T17:07:50.757Z,38.00
2024-05-09T17:18:19.346Z,37.30
2024-05-09T17:28:44.907Z,40.50
2024-05-09T17:39:13.612Z,40.50
2024-05-09T17:49:38.657Z,41.60
2024-05-09T18:00:11.513Z,43.40
2024-05-09T18:10:45.945Z,48.10
2024-05-09T18:21:19.739Z,52.40
2024-05-09T18:31:45.735Z,52.30
2024-05-09T18:42:12.860Z,52.10
2024-05-09T18:52:38.011Z,53.10
2024-05-09T19:03:09.986Z,55.00
2024-05-09T19:13:43.315Z,60.00
2024-05-09T19:24:17.330Z,58.30
2024-05-09T19:34:47.931Z,61.00
2024-05-09T19:45:19.530Z,63.10
2024-05-09T19:55:50.831Z,65.20
2024-05-09T20:06:26.393Z,63.10
2024-05-09T20:16:51.699Z,61.70
2024-05-09T20:27:25.570Z,63.20
2024-05-09T20:37:56.599Z,66.40
2024-05-09T20:48:30.270Z,66.40
2024-05-09T20:58:57.209Z,67.30
